createdAt,value
2023-05-05T10:21:51.695Z,9.95
2023-05-05T10:27:20.330Z,10.30
2023-05-05T10:32:57.460Z,11.35
2023-05-05T10:38:29.548Z,10.32
2023-05-05T10:43:54.682Z,11.38
2023-05-05T10:49:51.574Z,9.75
2023-05-05T10:55:21.233Z,9.30
2023-05-05T11:00:42.324Z,10.60
2023-05-05T11:06:06.411Z,10.15
2023-05-05T11:12:06.626Z,10.85
2023-05-05T11:17:47.796Z,9.60
2023-05-05T11:23:08.977Z,10.32
2023-05-05T11:28:31.829Z,11.00
2023-05-05T11:33:53.479Z,9.60
2023-05-05T11:39:17.926Z,11.13
2023-05-05T11:44:39.314Z,10.30
2023-05-05T11:50:16.999Z,10.63
2023-05-05T11:55:38.240Z,10.45
2023-05-05T12:00:59.336Z,9.10
2023-05-05T12:06:20.770Z,10.27
2023-05-05T12:11:55.880Z,10.55
2023-05-05T12:17:18.542Z,9.23
2023-05-05T12:22:40.514Z,10.17
2023-05-05T12:28:01.749Z,8.63
2023-05-05T12:33:23.667Z,8.73
2023-05-05T12:38:44.877Z,12.48
2023-05-05T12:44:06.388Z,11.68
2023-05-05T12:49:27.547Z,12.32
2023-05-05T12:54:54.855Z,12.75
2023-05-05T13:00:17.285Z,8.65
2023-05-05T13:05:38.407Z,8.20
2023-05-05T13:10:59.937Z,14.60
2023-05-05T13:16:21.338Z,14.13
2023-05-05T13:21:42.787Z,13.93
2023-05-05T13:27:04.335Z,9.82
2023-05-05T13:32:25.804Z,9.13
2023-05-05T13:37:47.300Z,8.52
2023-05-05T13:43:08.644Z,6.68
2023-05-05T13:48:30.121Z,7.45
2023-05-05T13:53:51.227Z,7.05
2023-05-05T13:59:12.642Z,7.10
2023-05-05T14:04:34.179Z,3.42
2023-05-05T14:09:55.744Z,2.70
2023-05-05T14:15:17.215Z,2.08
2023-05-05T14:20:38.592Z,1.10
2023-05-05T14:26:00.512Z,0.95
2023-05-05T14:31:22.013Z,0.80
2023-05-05T14:36:43.454Z,0.85
2023-05-05T14:42:04.990Z,0.82
2023-05-05T14:47:26.403Z,0.90
2023-05-05T14:52:47.808Z,0.90
2023-05-05T14:58:09.129Z,1.17
2023-05-05T15:03:30.598Z,1.00
2023-05-05T15:08:52.139Z,1.00
2023-05-05T15:14:13.545Z,1.35
2023-05-05T15:19:34.921Z,1.40
2023-05-05T15:24:56.499Z,1.35
2023-05-05T15:30:17.978Z,1.88
2023-05-05T15:35:39.355Z,1.75
2023-05-05T15:41:00.853Z,2.67
2023-05-05T15:46:22.390Z,2.47
2023-05-05T15:51:43.769Z,2.33
2023-05-05T15:57:05.212Z,2.33
2023-05-05T16:02:26.736Z,2.80
2023-05-05T16:07:48.307Z,3.92
2023-05-05T16:13:09.760Z,3.22
2023-05-05T16:18:31.231Z,2.75
2023-05-05T16:23:52.878Z,3.25
2023-05-05T16:29:14.063Z,2.92
2023-05-05T16:34:35.404Z,3.05
2023-05-05T16:39:56.787Z,4.95
2023-05-05T16:45:18.396Z,2.90
2023-05-05T16:50:39.897Z,2.55
2023-05-05T16:56:01.331Z,2.10
2023-05-05T17:01:22.910Z,1.70
2023-05-05T17:06:44.205Z,1.40
